sensor_id;sensor_type;location;lat;lon;timestamp;pressure;altitude;pressure_sealevel;temperature;humidity
21623;BME280;10973;46.706;12.340;2023-08-21T00:01:59;88339.19;;;19.43;51.71
21623;BME280;10973;46.706;12.340;2023-08-21T00:04:27;88337.31;;;19.40;51.76
21623;BME280;10973;46.706;12.340;2023-08-21T00:06:54;88340.38;;;19.38;51.61
21623;BME280;10973;46.706;12.340;2023-08-21T00:09:21;88336.94;;;19.38;51.59
21623;BME280;10973;46.706;12.340;2023-08-21T00:11:49;88337.38;;;19.33;51.75
21623;BME280;10973;46.706;12.340;2023-08-21T00:14:16;88340.06;;;19.29;51.64
21623;BME280;10973;46.706;12.340;2023-08-21T00:16:44;88335.88;;;19.28;51.97
21623;BME280;10973;46.706;12.340;2023-08-21T00:19:11;88339.75;;;19.23;52.01
21623;BME280;10973;46.706;12.340;2023-08-21T00:21:41;88336.34;;;19.19;51.87
21623;BME280;10973;46.706;12.340;2023-08-21T00:24:08;88332.13;;;19.22;52.04
21623;BME280;10973;46.706;12.340;2023-08-21T00:26:36;88335.63;;;19.15;51.94
21623;BME280;10973;46.706;12.340;2023-08-21T00:29:03;88332.59;;;19.13;51.54
21623;BME280;10973;46.706;12.340;2023-08-21T00:31:30;88331.88;;;19.09;52.07
21623;BME280;10973;46.706;12.340;2023-08-21T00:33:58;88334.94;;;19.08;52.25
21623;BME280;10973;46.706;12.340;2023-08-21T00:36:25;88339.91;;;19.06;52.19
21623;BME280;10973;46.706;12.340;2023-08-21T00:38:53;88338.03;;;19.03;52.14
21623;BME280;10973;46.706;12.340;2023-08-21T00:41:20;88339.59;;;18.97;52.05
21623;BME280;10973;46.706;12.340;2023-08-21T00:43:48;88334.66;;;18.95;52.28
21623;BME280;10973;46.706;12.340;2023-08-21T00:46:16;88336.56;;;18.95;52.16
21623;BME280;10973;46.706;12.340;2023-08-21T00:48:44;88341.56;;;18.93;52.20
21623;BME280;10973;46.706;12.340;2023-08-21T00:51:14;88341.97;;;18.88;52.27
21623;BME280;10973;46.706;12.340;2023-08-21T00:53:42;88337.09;;;18.79;52.11
21623;BME280;10973;46.706;12.340;2023-08-21T00:56:10;88334.84;;;18.78;52.20
21623;BME280;10973;46.706;12.340;2023-08-21T00:58:38;88344.34;;;18.79;52.24
21623;BME280;10973;46.706;12.340;2023-08-21T01:01:06;88341.72;;;18.75;52.27
21623;BME280;10973;46.706;12.340;2023-08-21T01:03:33;88344.81;;;18.74;52.58
21623;BME280;10973;46.706;12.340;2023-08-21T01:06:01;88348.25;;;18.71;52.49
21623;BME280;10973;46.706;12.340;2023-08-21T01:08:45;88347.19;;;18.61;52.58
21623;BME280;10973;46.706;12.340;2023-08-21T01:16:42;88346.84;;;18.56;52.63
21623;BME280;10973;46.706;12.340;2023-08-21T01:19:30;88352.22;;;18.52;52.68
21623;BME280;10973;46.706;12.340;2023-08-21T01:22:18;88346.16;;;18.48;52.87
21623;BME280;10973;46.706;12.340;2023-08-21T01:24:59;88360.25;;;18.45;52.86
21623;BME280;10973;46.706;12.340;2023-08-21T01:27:26;88354.94;;;18.45;52.77
21623;BME280;10973;46.706;12.340;2023-08-21T01:29:54;88361.41;;;18.44;52.83
21623;BME280;10973;46.706;12.340;2023-08-21T01:35:06;88351.94;;;18.32;52.97
21623;BME280;10973;46.706;12.340;2023-08-21T01:37:35;88355.75;;;18.31;53.00
21623;BME280;10973;46.706;12.340;2023-08-21T01:40:04;88351.97;;;18.29;53.33
21623;BME280;10973;46.706;12.340;2023-08-21T01:42:32;88361.13;;;18.24;53.16
21623;BME280;10973;46.706;12.340;2023-08-21T01:44:59;88356.19;;;18.23;52.98
21623;BME280;10973;46.706;12.340;2023-08-21T01:47:27;88362.69;;;18.22;53.23
21623;BME280;10973;46.706;12.340;2023-08-21T01:49:54;88349.00;;;18.16;53.28
21623;BME280;10973;46.706;12.340;2023-08-21T01:52:22;88359.69;;;18.13;53.38
21623;BME280;10973;46.706;12.340;2023-08-21T01:54:50;88361.97;;;18.14;53.47
21623;BME280;10973;46.706;12.340;2023-08-21T01:57:18;88355.13;;;18.13;53.47
21623;BME280;10973;46.706;12.340;2023-08-21T01:59:46;88347.47;;;18.15;53.43
21623;BME280;10973;46.706;12.340;2023-08-21T02:02:13;88347.84;;;18.17;53.26
21623;BME280;10973;46.706;12.340;2023-08-21T02:04:41;88344.06;;;18.15;53.18
21623;BME280;10973;46.706;12.340;2023-08-21T02:07:08;88346.69;;;18.18;53.01
21623;BME280;10973;46.706;12.340;2023-08-21T02:09:35;88355.06;;;18.20;52.90
21623;BME280;10973;46.706;12.340;2023-08-21T02:12:03;88352.03;;;18.18;53.13
21623;BME280;10973;46.706;12.340;2023-08-21T02:14:31;88352.06;;;18.15;53.07
21623;BME280;10973;46.706;12.340;2023-08-21T02:16:59;88360.06;;;18.15;52.96
21623;BME280;10973;46.706;12.340;2023-08-21T02:19:26;88352.47;;;18.10;53.17
21623;BME280;10973;46.706;12.340;2023-08-21T02:21:54;88351.34;;;18.07;53.31
21623;BME280;10973;46.706;12.340;2023-08-21T02:24:21;88356.31;;;18.05;53.23
21623;BME280;10973;46.706;12.340;2023-08-21T02:26:49;88349.09;;;18.02;53.34
21623;BME280;10973;46.706;12.340;2023-08-21T02:29:16;88357.84;;;18.03;53.51
21623;BME280;10973;46.706;12.340;2023-08-21T02:31:43;88358.66;;;17.93;53.38
21623;BME280;10973;46.706;12.340;2023-08-21T02:34:11;88356.03;;;17.89;53.45
21623;BME280;10973;46.706;12.340;2023-08-21T02:36:38;88354.53;;;17.85;53.16
21623;BME280;10973;46.706;12.340;2023-08-21T02:39:06;88357.59;;;17.79;53.30
21623;BME280;10973;46.706;12.340;2023-08-21T02:41:33;88356.81;;;17.79;53.36
21623;BME280;10973;46.706;12.340;2023-08-21T02:44:00;88346.16;;;17.79;53.43
21623;BME280;10973;46.706;12.340;2023-08-21T02:46:28;88356.09;;;17.75;53.68
21623;BME280;10973;46.706;12.340;2023-08-21T02:48:55;88349.63;;;17.72;53.47
21623;BME280;10973;46.706;12.340;2023-08-21T02:51:23;88351.91;;;17.70;53.50
21623;BME280;10973;46.706;12.340;2023-08-21T02:53:50;88354.97;;;17.69;53.61
21623;BME280;10973;46.706;12.340;2023-08-21T02:56:19;88358.03;;;17.64;53.89
21623;BME280;10973;46.706;12.340;2023-08-21T02:58:46;88351.97;;;17.60;53.82
21623;BME280;10973;46.706;12.340;2023-08-21T03:01:14;88347.78;;;17.59;53.69
21623;BME280;10973;46.706;12.340;2023-08-21T03:03:41;88347.03;;;17.55;53.80
21623;BME280;10973;46.706;12.340;2023-08-21T03:06:09;88351.59;;;17.54;53.73
21623;BME280;10973;46.706;12.340;2023-08-21T03:08:36;88343.97;;;17.49;53.93
21623;BME280;10973;46.706;12.340;2023-08-21T03:11:03;88344.75;;;17.50;53.91
21623;BME280;10973;46.706;12.340;2023-08-21T03:13:31;88349.72;;;17.51;53.98
21623;BME280;10973;46.706;12.340;2023-08-21T03:15:59;88352.38;;;17.55;53.93
21623;BME280;10973;46.706;12.340;2023-08-21T03:18:31;88345.50;;;17.54;54.06
21623;BME280;10973;46.706;12.340;2023-08-21T03:20:59;88346.31;;;17.51;54.00
21623;BME280;10973;46.706;12.340;2023-08-21T03:23:26;88348.94;;;17.47;54.19
21623;BME280;10973;46.706;12.340;2023-08-21T03:25:54;88342.88;;;17.43;53.98
21623;BME280;10973;46.706;12.340;2023-08-21T03:28:21;88342.09;;;17.43;54.07
21623;BME280;10973;46.706;12.340;2023-08-21T03:30:48;88344.78;;;17.36;54.18
21623;BME280;10973;46.706;12.340;2023-08-21T03:33:16;88338.72;;;17.35;54.29
21623;BME280;10973;46.706;12.340;2023-08-21T03:35:43;88335.28;;;17.31;54.15
21623;BME280;10973;46.706;12.340;2023-08-21T03:38:11;88334.94;;;17.33;54.44
21623;BME280;10973;46.706;12.340;2023-08-21T03:40:39;88341.00;;;17.30;54.39
21623;BME280;10973;46.706;12.340;2023-08-21T03:43:07;88349.41;;;17.25;54.11
21623;BME280;10973;46.706;12.340;2023-08-21T03:45:34;88346.72;;;17.25;53.79
21623;BME280;10973;46.706;12.340;2023-08-21T03:48:02;88341.78;;;17.20;53.96
21623;BME280;10973;46.706;12.340;2023-08-21T03:50:30;88340.28;;;17.15;54.01
21623;BME280;10973;46.706;12.340;2023-08-21T03:52:57;88352.09;;;17.14;54.12
21623;BME280;10973;46.706;12.340;2023-08-21T03:55:25;88354.41;;;17.12;54.27
21623;BME280;10973;46.706;12.340;2023-08-21T03:57:52;88357.41;;;17.10;54.34
21623;BME280;10973;46.706;12.340;2023-08-21T04:00:19;88352.13;;;17.03;54.58
21623;BME280;10973;46.706;12.340;2023-08-21T04:02:47;88354.41;;;16.98;54.65
21623;BME280;10973;46.706;12.340;2023-08-21T04:05:14;88350.63;;;16.95;54.33
21623;BME280;10973;46.706;12.340;2023-08-21T04:07:42;88350.25;;;16.90;54.51
21623;BME280;10973;46.706;12.340;2023-08-21T04:10:09;88353.31;;;16.92;54.42
21623;BME280;10973;46.706;12.340;2023-08-21T04:12:37;88352.94;;;16.90;54.49
21623;BME280;10973;46.706;12.340;2023-08-21T04:15:05;88360.13;;;16.93;54.50
21623;BME280;10973;46.706;12.340;2023-08-21T04:17:32;88365.84;;;16.88;54.58
21623;BME280;10973;46.706;12.340;2023-08-21T04:20:00;88362.44;;;16.87;54.56
21623;BME280;10973;46.706;12.340;2023-08-21T04:22:27;88368.91;;;16.83;54.60
21623;BME280;10973;46.706;12.340;2023-08-21T04:24:55;88362.06;;;16.78;54.79
21623;BME280;10973;46.706;12.340;2023-08-21T04:27:22;88368.16;;;16.72;54.93
21623;BME280;10973;46.706;12.340;2023-08-21T04:29:49;88361.28;;;16.74;54.86
21623;BME280;10973;46.706;12.340;2023-08-21T04:32:17;88366.63;;;16.74;55.04
21623;BME280;10973;46.706;12.340;2023-08-21T04:34:44;88364.75;;;16.71;55.04
21623;BME280;10973;46.706;12.340;2023-08-21T04:37:12;88363.59;;;16.72;55.35
21623;BME280;10973;46.706;12.340;2023-08-21T04:39:40;88356.75;;;16.71;55.09
21623;BME280;10973;46.706;12.340;2023-08-21T04:42:07;88357.13;;;16.70;55.12
21623;BME280;10973;46.706;12.340;2023-08-21T04:44:35;88357.91;;;16.67;55.20
21623;BME280;10973;46.706;12.340;2023-08-21T04:47:24;88357.88;;;16.70;55.21
21623;BME280;10973;46.706;12.340;2023-08-21T04:49:53;88356.75;;;16.71;55.31
21623;BME280;10973;46.706;12.340;2023-08-21T04:52:22;88359.03;;;16.73;55.23
21623;BME280;10973;46.706;12.340;2023-08-21T04:54:50;88352.94;;;16.76;55.14
21623;BME280;10973;46.706;12.340;2023-08-21T04:57:18;88363.22;;;16.74;55.29
21623;BME280;10973;46.706;12.340;2023-08-21T04:59:46;88363.97;;;16.71;55.35
21623;BME280;10973;46.706;12.340;2023-08-21T05:02:14;88364.38;;;16.69;55.30
21623;BME280;10973;46.706;12.340;2023-08-21T05:04:42;88361.69;;;16.69;55.47
21623;BME280;10973;46.706;12.340;2023-08-21T05:07:09;88366.66;;;16.67;55.68
21623;BME280;10973;46.706;12.340;2023-08-21T05:09:36;88360.91;;;16.65;55.64
21623;BME280;10973;46.706;12.340;2023-08-21T05:12:05;88354.09;;;16.64;55.73
21623;BME280;10973;46.706;12.340;2023-08-21T05:14:32;88359.03;;;16.66;55.65
21623;BME280;10973;46.706;12.340;2023-08-21T05:17:00;88359.41;;;16.68;55.58
21623;BME280;10973;46.706;12.340;2023-08-21T05:19:27;88365.88;;;16.63;55.74
21623;BME280;10973;46.706;12.340;2023-08-21T05:21:55;88363.22;;;16.60;55.77
21623;BME280;10973;46.706;12.340;2023-08-21T05:24:23;88362.44;;;16.66;55.82
21623;BME280;10973;46.706;12.340;2023-08-21T05:26:51;88367.78;;;16.66;55.74
21623;BME280;10973;46.706;12.340;2023-08-21T05:29:18;88362.81;;;16.68;55.78
21623;BME280;10973;46.706;12.340;2023-08-21T05:31:46;88371.56;;;16.69;55.61
21623;BME280;10973;46.706;12.340;2023-08-21T05:34:14;88368.16;;;16.68;55.82
21623;BME280;10973;46.706;12.340;2023-08-21T05:36:41;88370.81;;;16.68;55.74
21623;BME280;10973;46.706;12.340;2023-08-21T05:39:08;88368.53;;;16.67;55.63
21623;BME280;10973;46.706;12.340;2023-08-21T05:41:38;88370.81;;;16.72;55.72
21623;BME280;10973;46.706;12.340;2023-08-21T05:44:06;88371.56;;;16.72;55.90
21623;BME280;10973;46.706;12.340;2023-08-21T05:46:33;88367.78;;;16.73;55.82
21623;BME280;10973;46.706;12.340;2023-08-21T05:49:01;88366.25;;;16.72;55.85
21623;BME280;10973;46.706;12.340;2023-08-21T05:51:28;88365.50;;;16.72;55.91
21623;BME280;10973;46.706;12.340;2023-08-21T05:53:56;88369.28;;;16.74;55.73
21623;BME280;10973;46.706;12.340;2023-08-21T05:56:23;88367.78;;;16.80;55.81
21623;BME280;10973;46.706;12.340;2023-08-21T05:58:51;88361.28;;;16.85;55.86
21623;BME280;10973;46.706;12.340;2023-08-21T06:01:18;88361.28;;;16.92;55.65
21623;BME280;10973;46.706;12.340;2023-08-21T06:03:46;88363.19;;;16.98;55.93
21623;BME280;10973;46.706;12.340;2023-08-21T06:06:14;88355.53;;;17.07;55.77
21623;BME280;10973;46.706;12.340;2023-08-21T06:08:41;88366.16;;;17.22;55.91
21623;BME280;10973;46.706;12.340;2023-08-21T06:11:09;88369.56;;;17.29;55.96
21623;BME280;10973;46.706;12.340;2023-08-21T06:13:36;88361.91;;;17.38;55.91
21623;BME280;10973;46.706;12.340;2023-08-21T06:16:04;88365.69;;;17.48;56.01
21623;BME280;10973;46.706;12.340;2023-08-21T06:18:31;88363.00;;;17.58;56.06
21623;BME280;10973;46.706;12.340;2023-08-21T06:20:59;88361.09;;;17.66;56.30
21623;BME280;10973;46.706;12.340;2023-08-21T06:23:27;88360.66;;;17.78;56.14
21623;BME280;10973;46.706;12.340;2023-08-21T06:25:54;88364.03;;;17.89;55.94
21623;BME280;10973;46.706;12.340;2023-08-21T06:28:22;88359.78;;;17.99;56.07
21623;BME280;10973;46.706;12.340;2023-08-21T06:30:56;88361.25;;;18.10;55.78
21623;BME280;10973;46.706;12.340;2023-08-21T06:33:24;88360.41;;;18.20;55.53
21623;BME280;10973;46.706;12.340;2023-08-21T06:35:52;88350.41;;;18.35;55.38
21623;BME280;10973;46.706;12.340;2023-08-21T06:38:19;88358.72;;;18.44;54.90
21623;BME280;10973;46.706;12.340;2023-08-21T06:40:47;88356.38;;;18.57;54.71
21623;BME280;10973;46.706;12.340;2023-08-21T06:43:14;88351.69;;;18.68;54.57
21623;BME280;10973;46.706;12.340;2023-08-21T06:45:41;88349.34;;;18.77;54.52
21623;BME280;10973;46.706;12.340;2023-08-21T06:48:09;88353.84;;;18.87;54.20
21623;BME280;10973;46.706;12.340;2023-08-21T06:50:37;88353.34;;;18.99;54.16
21623;BME280;10973;46.706;12.340;2023-08-21T06:53:05;88349.81;;;19.09;54.14
21623;BME280;10973;46.706;12.340;2023-08-21T06:55:32;88344.75;;;19.18;53.80
21623;BME280;10973;46.706;12.340;2023-08-21T06:58:00;88349.63;;;19.27;53.96
21623;BME280;10973;46.706;12.340;2023-08-21T07:00:27;88347.25;;;19.39;53.81
21623;BME280;10973;46.706;12.340;2023-08-21T07:02:55;88344.84;;;19.48;53.50
21623;BME280;10973;46.706;12.340;2023-08-21T07:05:23;88351.63;;;19.56;53.22
21623;BME280;10973;46.706;12.340;2023-08-21T07:07:50;88347.72;;;19.64;53.40
21623;BME280;10973;46.706;12.340;2023-08-21T07:14:27;88347.91;;;19.80;52.81
21623;BME280;10973;46.706;12.340;2023-08-21T07:16:55;88349.69;;;19.90;52.88
21623;BME280;10973;46.706;12.340;2023-08-21T07:19:22;88336.56;;;20.00;52.73
21623;BME280;10973;46.706;12.340;2023-08-21T07:21:50;88343.72;;;20.10;52.42
21623;BME280;10973;46.706;12.340;2023-08-21T07:24:17;88338.63;;;20.19;52.30
21623;BME280;10973;46.706;12.340;2023-08-21T07:26:44;88332.44;;;20.25;51.84
21623;BME280;10973;46.706;12.340;2023-08-21T07:29:12;88338.47;;;20.33;51.30
21623;BME280;10973;46.706;12.340;2023-08-21T07:31:39;88337.19;;;20.41;50.52
21623;BME280;10973;46.706;12.340;2023-08-21T07:34:06;88333.59;;;20.51;50.26
21623;BME280;10973;46.706;12.340;2023-08-21T07:36:34;88330.78;;;20.58;50.51
21623;BME280;10973;46.706;12.340;2023-08-21T07:39:02;88336.03;;;20.65;50.36
21623;BME280;10973;46.706;12.340;2023-08-21T07:41:29;88329.44;;;20.73;50.21
21623;BME280;10973;46.706;12.340;2023-08-21T07:43:57;88327.78;;;20.79;49.34
21623;BME280;10973;46.706;12.340;2023-08-21T07:46:24;88329.56;;;20.89;48.99
21623;BME280;10973;46.706;12.340;2023-08-21T07:48:52;88325.22;;;20.95;48.92
21623;BME280;10973;46.706;12.340;2023-08-21T07:51:20;88327.00;;;21.05;49.06
21623;BME280;10973;46.706;12.340;2023-08-21T07:53:47;88329.97;;;21.11;48.73
21623;BME280;10973;46.706;12.340;2023-08-21T07:56:15;88322.56;;;21.18;48.29
21623;BME280;10973;46.706;12.340;2023-08-21T07:58:42;88320.09;;;21.27;47.87
21623;BME280;10973;46.706;12.340;2023-08-21T08:01:10;88322.25;;;21.36;47.99
21623;BME280;10973;46.706;12.340;2023-08-21T08:03:37;88323.28;;;21.42;47.70
21623;BME280;10973;46.706;12.340;2023-08-21T08:06:05;88313.59;;;21.48;47.26
21623;BME280;10973;46.706;12.340;2023-08-21T08:08:32;88317.25;;;21.58;46.51
21623;BME280;10973;46.706;12.340;2023-08-21T08:11:04;88317.84;;;21.65;46.22
21623;BME280;10973;46.706;12.340;2023-08-21T08:13:32;88318.47;;;21.73;46.81
21623;BME280;10973;46.706;12.340;2023-08-21T08:15:59;88315.31;;;21.78;47.71
21623;BME280;10973;46.706;12.340;2023-08-21T08:18:27;88322.84;;;21.86;47.98
21623;BME280;10973;46.706;12.340;2023-08-21T08:20:54;88318.00;;;21.97;48.39
21623;BME280;10973;46.706;12.340;2023-08-21T08:23:22;88314.41;;;22.04;48.27
21623;BME280;10973;46.706;12.340;2023-08-21T08:25:50;88316.53;;;22.13;48.52
21623;BME280;10973;46.706;12.340;2023-08-21T08:28:17;88311.78;;;22.20;47.70
21623;BME280;10973;46.706;12.340;2023-08-21T08:30:45;88311.97;;;22.29;47.34
21623;BME280;10973;46.706;12.340;2023-08-21T08:33:13;88302.59;;;22.37;46.95
21623;BME280;10973;46.706;12.340;2023-08-21T08:35:41;88296.97;;;22.48;46.74
21623;BME280;10973;46.706;12.340;2023-08-21T08:38:09;88295.22;;;22.57;46.80
21623;BME280;10973;46.706;12.340;2023-08-21T08:40:46;88294.25;;;22.67;46.30
21623;BME280;10973;46.706;12.340;2023-08-21T08:43:14;88304.44;;;22.76;46.76
21623;BME280;10973;46.706;12.340;2023-08-21T08:45:43;88299.38;;;22.78;45.92
21623;BME280;10973;46.706;12.340;2023-08-21T08:48:15;88286.84;;;22.88;46.27
21623;BME280;10973;46.706;12.340;2023-08-21T08:50:45;88289.28;;;22.98;44.99
21623;BME280;10973;46.706;12.340;2023-08-21T08:53:13;88285.50;;;23.12;45.87
21623;BME280;10973;46.706;12.340;2023-08-21T08:55:44;88280.16;;;23.24;45.62
21623;BME280;10973;46.706;12.340;2023-08-21T08:58:13;88281.91;;;23.31;44.88
21623;BME280;10973;46.706;12.340;2023-08-21T09:00:40;88280.06;;;23.44;44.65
21623;BME280;10973;46.706;12.340;2023-08-21T09:03:08;88275.25;;;23.52;44.17
21623;BME280;10973;46.706;12.340;2023-08-21T09:05:36;88268.06;;;23.61;43.79
21623;BME280;10973;46.706;12.340;2023-08-21T09:08:11;88265.50;;;23.70;43.86
21623;BME280;10973;46.706;12.340;2023-08-21T09:10:41;88263.72;;;23.80;43.38
21623;BME280;10973;46.706;12.340;2023-08-21T09:13:17;88267.28;;;23.89;43.17
21623;BME280;10973;46.706;12.340;2023-08-21T09:15:47;88256.72;;;23.95;43.33
21623;BME280;10973;46.706;12.340;2023-08-21T09:18:15;88264.56;;;24.05;43.14
21623;BME280;10973;46.706;12.340;2023-08-21T09:20:43;88258.22;;;24.12;42.37
21623;BME280;10973;46.706;12.340;2023-08-21T09:23:16;88260.03;;;24.15;43.08
21623;BME280;10973;46.706;12.340;2023-08-21T09:25:46;88259.28;;;24.27;42.42
21623;BME280;10973;46.706;12.340;2023-08-21T09:28:18;88259.84;;;24.35;41.95
21623;BME280;10973;46.706;12.340;2023-08-21T09:30:54;88256.06;;;24.45;41.39
21623;BME280;10973;46.706;12.340;2023-08-21T09:33:23;88243.88;;;24.53;40.99
21623;BME280;10973;46.706;12.340;2023-08-21T09:35:52;88243.31;;;24.58;40.87
21623;BME280;10973;46.706;12.340;2023-08-21T09:38:21;88240.31;;;24.68;41.34
21623;BME280;10973;46.706;12.340;2023-08-21T09:40:54;88235.03;;;24.77;40.17
21623;BME280;10973;46.706;12.340;2023-08-21T09:43:24;88234.81;;;24.85;40.58
21623;BME280;10973;46.706;12.340;2023-08-21T09:45:55;88228.44;;;24.91;39.54
21623;BME280;10973;46.706;12.340;2023-08-21T09:48:24;88231.66;;;24.99;39.14
21623;BME280;10973;46.706;12.340;2023-08-21T09:50:54;88226.00;;;25.06;39.17
21623;BME280;10973;46.706;12.340;2023-08-21T09:53:22;88228.91;;;25.11;38.75
21623;BME280;10973;46.706;12.340;2023-08-21T09:55:54;88216.69;;;25.19;37.14
21623;BME280;10973;46.706;12.340;2023-08-21T09:58:22;88218.41;;;25.26;36.97
21623;BME280;10973;46.706;12.340;2023-08-21T10:00:51;88213.66;;;25.30;37.81
21623;BME280;10973;46.706;12.340;2023-08-21T10:03:23;88211.44;;;25.37;37.06
21623;BME280;10973;46.706;12.340;2023-08-21T10:05:57;88222.34;;;25.46;35.85
21623;BME280;10973;46.706;12.340;2023-08-21T10:08:27;88214.66;;;25.58;35.32
21623;BME280;10973;46.706;12.340;2023-08-21T10:10:55;88207.34;;;25.67;35.50
21623;BME280;10973;46.706;12.340;2023-08-21T10:13:23;88210.53;;;25.75;35.85
21623;BME280;10973;46.706;12.340;2023-08-21T10:15:51;88207.28;;;25.80;35.53
21623;BME280;10973;46.706;12.340;2023-08-21T10:18:31;88207.50;;;25.94;34.89
21623;BME280;10973;46.706;12.340;2023-08-21T10:21:22;88202.03;;;26.07;34.96
21623;BME280;10973;46.706;12.340;2023-08-21T10:23:54;88207.81;;;26.18;35.52
21623;BME280;10973;46.706;12.340;2023-08-21T10:26:25;88204.59;;;26.32;35.42
21623;BME280;10973;46.706;12.340;2023-08-21T10:29:03;88204.16;;;26.43;34.55
21623;BME280;10973;46.706;12.340;2023-08-21T10:31:41;88199.41;;;26.56;35.19
21623;BME280;10973;46.706;12.340;2023-08-21T10:34:12;88198.72;;;26.73;34.38
21623;BME280;10973;46.706;12.340;2023-08-21T10:39:20;88192.66;;;27.00;32.19
21623;BME280;10973;46.706;12.340;2023-08-21T10:42:09;88186.50;;;27.18;32.27
21623;BME280;10973;46.706;12.340;2023-08-21T10:47:23;88188.34;;;27.57;32.44
21623;BME280;10973;46.706;12.340;2023-08-21T10:50:07;88186.06;;;27.83;31.50
21623;BME280;10973;46.706;12.340;2023-08-21T10:52:43;88188.00;;;28.09;29.15
21623;BME280;10973;46.706;12.340;2023-08-21T10:55:20;88188.84;;;28.34;28.91
21623;BME280;10973;46.706;12.340;2023-08-21T10:57:49;88176.06;;;28.58;28.90
21623;BME280;10973;46.706;12.340;2023-08-21T11:00:18;88181.41;;;28.85;28.06
21623;BME280;10973;46.706;12.340;2023-08-21T11:02:52;88189.41;;;29.12;27.09
21623;BME280;10973;46.706;12.340;2023-08-21T11:05:22;88191.97;;;29.39;26.13
21623;BME280;10973;46.706;12.340;2023-08-21T11:07:51;88179.19;;;29.69;26.10
21623;BME280;10973;46.706;12.340;2023-08-21T11:10:23;88174.59;;;29.99;26.60
21623;BME280;10973;46.706;12.340;2023-08-21T11:12:56;88170.88;;;30.40;25.83
21623;BME280;10973;46.706;12.340;2023-08-21T11:15:26;88178.81;;;30.87;26.69
21623;BME280;10973;46.706;12.340;2023-08-21T11:18:02;88173.59;;;31.39;23.88
21623;BME280;10973;46.706;12.340;2023-08-21T11:20:35;88170.59;;;31.97;23.63
21623;BME280;10973;46.706;12.340;2023-08-21T11:23:05;88172.00;;;32.64;22.43
21623;BME280;10973;46.706;12.340;2023-08-21T11:25:34;88163.44;;;33.14;21.72
21623;BME280;10973;46.706;12.340;2023-08-21T11:28:02;88172.06;;;33.49;21.10
21623;BME280;10973;46.706;12.340;2023-08-21T11:30:34;88167.06;;;33.90;20.14
21623;BME280;10973;46.706;12.340;2023-08-21T11:33:12;88163.72;;;34.28;19.78
21623;BME280;10973;46.706;12.340;2023-08-21T11:35:41;88166.00;;;34.46;19.88
21623;BME280;10973;46.706;12.340;2023-08-21T11:38:20;88157.34;;;34.64;19.11
21623;BME280;10973;46.706;12.340;2023-08-21T11:40:57;88157.81;;;34.68;19.71
21623;BME280;10973;46.706;12.340;2023-08-21T11:44:01;88161.78;;;34.78;20.61
21623;BME280;10973;46.706;12.340;2023-08-21T11:46:29;88152.34;;;35.01;19.21
21623;BME280;10973;46.706;12.340;2023-08-21T11:48:57;88157.09;;;35.23;18.42
21623;BME280;10973;46.706;12.340;2023-08-21T11:51:25;88156.56;;;35.25;18.54
21623;BME280;10973;46.706;12.340;2023-08-21T11:53:52;88147.09;;;35.14;17.59
21623;BME280;10973;46.706;12.340;2023-08-21T11:56:20;88153.09;;;35.19;18.16
21623;BME280;10973;46.706;12.340;2023-08-21T11:58:50;88155.56;;;35.00;17.24
21623;BME280;10973;46.706;12.340;2023-08-21T12:01:22;88151.84;;;35.03;18.83
21623;BME280;10973;46.706;12.340;2023-08-21T12:03:49;88150.09;;;35.00;17.63
21623;BME280;10973;46.706;12.340;2023-08-21T12:06:17;88156.06;;;34.87;18.27
21623;BME280;10973;46.706;12.340;2023-08-21T12:08:45;88145.38;;;34.84;17.63
21623;BME280;10973;46.706;12.340;2023-08-21T12:11:13;88144.13;;;34.79;18.39
21623;BME280;10973;46.706;12.340;2023-08-21T12:13:40;88140.13;;;34.86;17.59
21623;BME280;10973;46.706;12.340;2023-08-21T12:16:08;88143.63;;;34.86;17.94
21623;BME280;10973;46.706;12.340;2023-08-21T12:18:35;88140.13;;;34.80;18.74
21623;BME280;10973;46.706;12.340;2023-08-21T12:21:03;88142.41;;;34.71;18.93
21623;BME280;10973;46.706;12.340;2023-08-21T12:23:30;88128.94;;;34.73;18.80
21623;BME280;10973;46.706;12.340;2023-08-21T12:25:59;88131.19;;;34.74;19.38
21623;BME280;10973;46.706;12.340;2023-08-21T12:28:27;88124.97;;;34.68;19.49
21623;BME280;10973;46.706;12.340;2023-08-21T12:30:54;88133.16;;;34.74;19.55
21623;BME280;10973;46.706;12.340;2023-08-21T12:33:21;88120.47;;;34.76;18.33
21623;BME280;10973;46.706;12.340;2023-08-21T12:35:51;88122.22;;;34.68;21.35
21623;BME280;10973;46.706;12.340;2023-08-21T12:38:19;88111.75;;;34.61;19.47
21623;BME280;10973;46.706;12.340;2023-08-21T12:40:46;88122.69;;;34.56;19.25
21623;BME280;10973;46.706;12.340;2023-08-21T12:43:14;88121.72;;;34.59;19.25
21623;BME280;10973;46.706;12.340;2023-08-21T12:45:41;88127.69;;;34.68;20.22
21623;BME280;10973;46.706;12.340;2023-08-21T12:48:09;88120.47;;;34.60;19.05
21623;BME280;10973;46.706;12.340;2023-08-21T12:50:36;88114.72;;;34.41;19.01
21623;BME280;10973;46.706;12.340;2023-08-21T12:53:04;88120.69;;;34.45;19.12
21623;BME280;10973;46.706;12.340;2023-08-21T12:55:31;88109.75;;;34.51;20.39
21623;BME280;10973;46.706;12.340;2023-08-21T12:57:59;88113.75;;;34.61;19.85
21623;BME280;10973;46.706;12.340;2023-08-21T13:00:27;88114.22;;;34.76;18.67
21623;BME280;10973;46.706;12.340;2023-08-21T13:02:54;88109.25;;;34.85;18.16
21623;BME280;10973;46.706;12.340;2023-08-21T13:05:22;88108.25;;;34.88;17.69
21623;BME280;10973;46.706;12.340;2023-08-21T13:07:50;88108.00;;;34.97;17.87
21623;BME280;10973;46.706;12.340;2023-08-21T13:10:27;88104.00;;;34.98;17.69
21623;BME280;10973;46.706;12.340;2023-08-21T13:12:55;88100.03;;;34.88;18.50
21623;BME280;10973;46.706;12.340;2023-08-21T13:15:22;88101.03;;;34.91;18.69
21623;BME280;10973;46.706;12.340;2023-08-21T13:17:50;88102.78;;;34.72;18.33